createdAt,value
2018-12-07T00:00:06.311Z,954.11
2018-12-07T00:01:06.299Z,954.11
2018-12-07T00:02:06.289Z,954.1
2018-12-07T00:03:06.272Z,954.03
2018-12-07T00:04:06.261Z,954.01
2018-12-07T00:05:06.248Z,953.92
2018-12-07T00:06:06.235Z,953.93
2018-12-07T00:07:06.224Z,953.87
2018-12-07T00:08:06.213Z,953.9
2018-12-07T00:09:06.199Z,953.87
2018-12-07T00:10:06.187Z,953.88
2018-12-07T00:11:06.174Z,953.84
2018-12-07T00:12:06.164Z,953.78
2018-12-07T00:13:06.150Z,953.81
2018-12-07T00:14:06.136Z,953.79
2018-12-07T00:15:06.123Z,953.79
2018-12-07T00:16:06.112Z,953.73
2018-12-07T00:17:06.098Z,953.71
2018-12-07T00:18:06.086Z,953.72
2018-12-07T00:19:06.074Z,953.68
2018-12-07T00:20:06.060Z,953.65
2018-12-07T00:21:06.048Z,953.68
2018-12-07T00:22:06.035Z,953.71
2018-12-07T00:23:06.023Z,953.66
2018-12-07T00:24:06.011Z,953.68
2018-12-07T00:25:05.998Z,953.67
2018-12-07T00:26:05.985Z,953.68
2018-12-07T00:27:05.975Z,953.7
2018-12-07T00:28:05.959Z,953.69
2018-12-07T00:29:05.949Z,953.71
2018-12-07T00:30:05.935Z,953.8
2018-12-07T00:31:05.924Z,953.74
2018-12-07T00:32:05.911Z,953.75
2018-12-07T00:33:05.899Z,953.78
2018-12-07T00:34:05.887Z,953.82
2018-12-07T00:35:05.873Z,953.79
2018-12-07T00:36:05.861Z,953.75
2018-12-07T00:37:05.848Z,953.7
2018-12-07T00:38:05.840Z,953.67
2018-12-07T00:39:05.822Z,953.66
2018-12-07T00:40:05.811Z,953.64
2018-12-07T00:41:05.799Z,953.65
2018-12-07T00:42:05.787Z,953.61
2018-12-07T00:43:05.774Z,953.65
2018-12-07T00:44:05.761Z,953.63
2018-12-07T00:45:05.750Z,953.66
2018-12-07T00:46:05.738Z,953.64
2018-12-07T00:47:05.725Z,953.64
2018-12-07T00:48:05.713Z,953.64
2018-12-07T00:49:05.700Z,953.58
2018-12-07T00:50:05.686Z,953.56
2018-12-07T00:51:05.675Z,953.57
2018-12-07T00:52:05.663Z,953.55
2018-12-07T00:53:05.651Z,953.59
2018-12-07T00:54:05.638Z,953.57
2018-12-07T00:55:05.625Z,953.58
2018-12-07T00:56:05.616Z,953.56
2018-12-07T00:57:05.602Z,953.48
2018-12-07T00:58:05.591Z,953.53
2018-12-07T00:59:05.577Z,953.56
2018-12-07T01:00:05.565Z,953.54
2018-12-07T01:01:05.552Z,953.54
2018-12-07T01:02:05.552Z,953.52
2018-12-07T01:03:05.529Z,953.54
2018-12-07T01:04:05.515Z,953.57
2018-12-07T01:05:05.505Z,953.56
2018-12-07T01:06:05.491Z,953.52
2018-12-07T01:07:05.478Z,953.58
2018-12-07T01:08:05.465Z,953.58
2018-12-07T01:09:05.456Z,953.6
2018-12-07T01:10:05.441Z,953.54
2018-12-07T01:11:05.430Z,953.53
2018-12-07T01:12:05.417Z,953.57
2018-12-07T01:13:05.405Z,953.58
2018-12-07T01:14:05.393Z,953.56
2018-12-07T01:15:05.381Z,953.63
2018-12-07T01:16:05.369Z,953.58
2018-12-07T01:17:05.356Z,953.61
2018-12-07T01:18:05.344Z,953.67
2018-12-07T01:19:05.331Z,953.61
2018-12-07T01:20:05.318Z,953.62
2018-12-07T01:21:05.310Z,953.61
2018-12-07T01:22:05.312Z,953.57
2018-12-07T01:23:05.283Z,953.58
2018-12-07T01:24:05.271Z,953.55
2018-12-07T01:25:05.257Z,953.49
2018-12-07T01:26:05.245Z,953.51
2018-12-07T01:27:05.238Z,953.54
2018-12-07T01:28:05.222Z,953.51
2018-12-07T01:29:05.221Z,953.48
2018-12-07T01:30:05.197Z,953.43
2018-12-07T01:31:05.186Z,953.44
2018-12-07T01:32:05.181Z,953.39
2018-12-07T01:33:05.162Z,953.37
2018-12-07T01:34:05.148Z,953.34
2018-12-07T01:35:05.137Z,953.27
2018-12-07T01:36:05.125Z,953.3
2018-12-07T01:37:05.118Z,953.28
2018-12-07T01:38:05.099Z,953.28
2018-12-07T01:39:05.152Z,953.24
2018-12-07T01:40:05.076Z,953.2
2018-12-07T01:41:05.067Z,953.25
2018-12-07T01:42:05.054Z,953.14
2018-12-07T01:43:05.040Z,953.16
2018-12-07T01:44:05.030Z,953.13
2018-12-07T01:45:05.015Z,953.09
2018-12-07T01:46:05.004Z,953.16
2018-12-07T01:47:04.992Z,953.19
2018-12-07T01:48:04.981Z,953.17
2018-12-07T01:49:04.967Z,953.2
2018-12-07T01:50:04.957Z,953.19
2018-12-07T01:51:04.945Z,953.23
2018-12-07T01:52:04.931Z,953.19
2018-12-07T01:53:04.919Z,953.23
2018-12-07T01:54:04.908Z,953.25
2018-12-07T01:55:04.897Z,953.25
2018-12-07T01:56:04.882Z,953.22
2018-12-07T01:57:04.872Z,953.21
2018-12-07T01:58:04.859Z,953.26
2018-12-07T01:59:04.848Z,953.25
2018-12-07T02:00:04.837Z,953.28
2018-12-07T02:01:04.823Z,953.23
2018-12-07T02:02:04.812Z,953.25
2018-12-07T02:03:04.798Z,953.2
2018-12-07T02:04:04.787Z,953.2
2018-12-07T02:05:04.776Z,953.23
2018-12-07T02:06:04.763Z,953.16
2018-12-07T02:07:04.751Z,953.21
2018-12-07T02:08:04.739Z,953.19
2018-12-07T02:09:04.726Z,953.15
2018-12-07T02:10:04.716Z,953.14
2018-12-07T02:11:04.705Z,953.2
2018-12-07T02:12:04.696Z,953.19
2018-12-07T02:13:04.680Z,953.12
2018-12-07T02:14:04.667Z,953.13
2018-12-07T02:15:04.654Z,953.06
2018-12-07T02:16:04.643Z,953.15
2018-12-07T02:17:04.631Z,953.11
2018-12-07T02:18:04.619Z,953.14
2018-12-07T02:19:04.607Z,953.11
2018-12-07T02:20:04.595Z,953.08
2018-12-07T02:21:04.583Z,953.11
2018-12-07T02:22:04.573Z,953.05
2018-12-07T02:23:04.559Z,953.06
2018-12-07T02:24:04.547Z,952.99
2018-12-07T02:25:04.536Z,952.91
2018-12-07T02:26:04.529Z,952.94
2018-12-07T02:27:04.512Z,952.95
2018-12-07T02:28:04.500Z,952.92
2018-12-07T02:29:04.487Z,952.92
2018-12-07T02:30:04.479Z,952.95
2018-12-07T02:31:04.465Z,952.86
2018-12-07T02:32:04.452Z,952.86
2018-12-07T02:33:04.440Z,952.83
2018-12-07T02:34:04.428Z,952.85
2018-12-07T02:35:04.416Z,952.8
2018-12-07T02:36:04.404Z,952.79
2018-12-07T02:37:04.393Z,952.85
2018-12-07T02:38:04.380Z,952.82
2018-12-07T02:39:04.375Z,952.8
2018-12-07T02:40:04.357Z,952.8
2018-12-07T02:41:04.351Z,952.83
2018-12-07T02:42:04.333Z,952.77
2018-12-07T02:43:04.322Z,952.78
2018-12-07T02:44:04.310Z,952.81
2018-12-07T02:45:04.297Z,952.78
2018-12-07T02:46:04.286Z,952.76
2018-12-07T02:47:04.273Z,952.72
2018-12-07T02:48:04.262Z,952.68
2018-12-07T02:49:04.249Z,952.7
2018-12-07T02:50:04.237Z,952.69
2018-12-07T02:51:04.225Z,952.7
2018-12-07T02:52:04.214Z,952.69
2018-12-07T02:53:04.206Z,952.71
2018-12-07T02:54:04.190Z,952.61
2018-12-07T02:55:04.177Z,952.59
2018-12-07T02:56:04.167Z,952.63
2018-12-07T02:57:04.218Z,952.6
2018-12-07T02:58:04.143Z,952.53
2018-12-07T02:59:04.130Z,952.56
2018-12-07T03:00:04.118Z,952.55
2018-12-07T03:01:04.107Z,952.46
2018-12-07T03:02:04.093Z,952.45
2018-12-07T03:03:04.083Z,952.44
2018-12-07T03:04:04.072Z,952.42
2018-12-07T03:05:04.062Z,952.44
2018-12-07T03:06:04.047Z,952.4
2018-12-07T03:07:04.037Z,952.37
2018-12-07T03:08:04.024Z,952.36
2018-12-07T03:09:04.012Z,952.31
2018-12-07T03:10:04.002Z,952.32
2018-12-07T03:11:03.990Z,952.27
2018-12-07T03:12:03.978Z,952.27
2018-12-07T03:13:03.964Z,952.27
2018-12-07T03:14:03.957Z,952.23
2018-12-07T03:15:03.941Z,952.11
2018-12-07T03:16:03.929Z,952.19
2018-12-07T03:17:03.922Z,952.19
2018-12-07T03:18:03.907Z,952.13
2018-12-07T03:19:03.896Z,952.12
2018-12-07T03:20:03.884Z,952.13
2018-12-07T03:21:03.873Z,952.09
2018-12-07T03:22:03.860Z,952.12
2018-12-07T03:23:03.848Z,952.09
2018-12-07T03:24:03.835Z,952.1
2018-12-07T03:25:03.826Z,952.06
2018-12-07T03:26:03.813Z,952
2018-12-07T03:27:03.802Z,951.99
2018-12-07T03:28:03.793Z,951.97
2018-12-07T03:29:03.776Z,951.92
2018-12-07T03:30:03.767Z,951.97
2018-12-07T03:31:03.755Z,951.97
2018-12-07T03:32:03.744Z,951.95
2018-12-07T03:33:03.733Z,951.97
2018-12-07T03:34:03.719Z,951.98
2018-12-07T03:35:03.711Z,951.98
2018-12-07T03:36:03.694Z,951.93
2018-12-07T03:37:03.685Z,952.01
2018-12-07T03:38:03.673Z,952
2018-12-07T03:39:03.661Z,951.98
2018-12-07T03:40:03.649Z,951.96
2018-12-07T03:41:03.637Z,951.98
2018-12-07T03:42:03.625Z,951.9
2018-12-07T03:43:03.613Z,951.95
2018-12-07T03:44:03.602Z,951.91
2018-12-07T03:45:03.590Z,951.93
2018-12-07T03:46:03.582Z,951.89
2018-12-07T03:47:03.568Z,951.88
2018-12-07T03:48:03.561Z,951.98
2018-12-07T03:49:03.543Z,951.93
2018-12-07T03:50:03.530Z,951.94
2018-12-07T03:51:03.519Z,951.93
2018-12-07T03:52:03.508Z,951.9
2018-12-07T03:53:03.499Z,951.88
2018-12-07T03:54:03.483Z,951.92
2018-12-07T03:55:03.474Z,951.9
2018-12-07T03:56:03.461Z,951.96
2018-12-07T03:57:03.449Z,951.93
2018-12-07T03:58:03.437Z,952
2018-12-07T03:59:03.426Z,951.94
2018-12-07T04:00:03.419Z,951.91
2018-12-07T04:01:03.402Z,951.92
2018-12-07T04:02:03.391Z,951.94
2018-12-07T04:03:03.379Z,951.95
2018-12-07T04:04:03.367Z,951.94
2018-12-07T04:05:03.354Z,951.93
2018-12-07T04:06:03.343Z,951.9
2018-12-07T04:07:03.333Z,951.98
2018-12-07T04:08:03.320Z,951.92
2018-12-07T04:09:03.308Z,951.91
2018-12-07T04:10:03.297Z,951.93
2018-12-07T04:11:03.284Z,951.93
2018-12-07T04:12:03.272Z,951.95
2018-12-07T04:13:03.260Z,952
2018-12-07T04:14:03.251Z,951.94
2018-12-07T04:15:03.255Z,952.01
2018-12-07T04:16:03.227Z,951.98
2018-12-07T04:17:03.215Z,951.97
2018-12-07T04:18:03.204Z,951.92
2018-12-07T04:19:03.190Z,951.96
2018-12-07T04:20:03.180Z,951.92
2018-12-07T04:21:03.167Z,951.91
2018-12-07T04:22:03.159Z,951.92
2018-12-07T04:23:03.144Z,951.86
2018-12-07T04:24:03.139Z,951.8
2018-12-07T04:25:03.124Z,951.81
2018-12-07T04:26:03.110Z,951.79
2018-12-07T04:27:03.096Z,951.78
2018-12-07T04:28:03.085Z,951.79
2018-12-07T04:29:03.075Z,951.76
2018-12-07T04:30:03.061Z,951.74
2018-12-07T04:31:03.051Z,951.66
2018-12-07T04:32:03.039Z,951.67
2018-12-07T04:33:03.025Z,951.68
2018-12-07T04:34:03.013Z,951.68
2018-12-07T04:35:03.006Z,951.63
2018-12-07T04:36:07.259Z,951.64
2018-12-07T04:37:02.981Z,951.59
2018-12-07T04:38:02.967Z,951.61
2018-12-07T04:39:02.956Z,951.55
2018-12-07T04:40:02.946Z,951.49
2018-12-07T04:41:02.933Z,951.6
2018-12-07T04:42:02.921Z,951.55
2018-12-07T04:43:02.910Z,951.51
2018-12-07T04:44:02.897Z,951.41
2018-12-07T04:45:02.884Z,951.49
2018-12-07T04:46:02.878Z,951.49
2018-12-07T04:47:02.861Z,951.48
2018-12-07T04:48:02.850Z,951.47
2018-12-07T04:49:02.922Z,951.45
2018-12-07T04:50:02.826Z,951.39
2018-12-07T04:51:02.832Z,951.4
2018-12-07T04:52:02.809Z,951.38
2018-12-07T04:53:02.801Z,951.38
2018-12-07T04:54:02.780Z,951.34
2018-12-07T04:55:02.768Z,951.32
2018-12-07T04:56:02.761Z,951.34
2018-12-07T04:57:02.745Z,951.37
2018-12-07T04:58:02.735Z,951.32
2018-12-07T04:59:02.729Z,951.31
2018-12-07T05:00:02.713Z,951.27
2018-12-07T05:01:02.701Z,951.29
2018-12-07T05:02:02.687Z,951.22
2018-12-07T05:03:02.676Z,951.22
2018-12-07T05:04:02.664Z,951.33
2018-12-07T05:05:02.655Z,951.29
2018-12-07T05:06:02.640Z,951.25
2018-12-07T05:07:02.628Z,951.31
2018-12-07T05:08:02.619Z,951.23
2018-12-07T05:09:02.605Z,951.32
2018-12-07T05:10:02.592Z,951.25
2018-12-07T05:11:02.593Z,951.18
2018-12-07T05:12:02.570Z,951.21
2018-12-07T05:13:02.559Z,951.19
2018-12-07T05:14:02.554Z,951.21
2018-12-07T05:15:02.535Z,951.17
2018-12-07T05:16:02.526Z,951.16
2018-12-07T05:17:02.512Z,951.2
2018-12-07T05:18:02.502Z,951.2
2018-12-07T05:19:02.491Z,951.17
2018-12-07T05:20:02.477Z,951.16
2018-12-07T05:21:02.464Z,951.08
2018-12-07T05:22:02.452Z,951.19
2018-12-07T05:23:02.441Z,951.12
2018-12-07T05:24:02.484Z,951.1
2018-12-07T05:25:02.422Z,951.12
2018-12-07T05:26:02.408Z,951.13
2018-12-07T05:27:02.394Z,951.15
2018-12-07T05:28:02.383Z,951.11
2018-12-07T05:29:02.371Z,951.16
2018-12-07T05:30:02.360Z,951.14
2018-12-07T05:31:02.349Z,951.14
2018-12-07T05:32:02.336Z,951.14
2018-12-07T05:33:02.325Z,951.16
2018-12-07T05:34:02.315Z,951.15
2018-12-07T05:35:02.299Z,951.13
2018-12-07T05:36:02.288Z,951.16
2018-12-07T05:37:02.277Z,951.21
2018-12-07T05:38:02.266Z,951.17
2018-12-07T05:39:02.253Z,951.21
2018-12-07T05:40:02.247Z,951.16
2018-12-07T05:41:02.231Z,951.16
2018-12-07T05:42:02.220Z,951.18
2018-12-07T05:43:02.215Z,951.2
2018-12-07T05:44:02.198Z,951.18
2018-12-07T05:45:02.244Z,951.23
2018-12-07T05:46:02.173Z,951.22
2018-12-07T05:47:02.160Z,951.19
2018-12-07T05:48:02.215Z,951.25
2018-12-07T05:49:02.151Z,951.21
2018-12-07T05:50:02.125Z,951.21
2018-12-07T05:51:02.113Z,951.2
2018-12-07T05:52:02.102Z,951.19
2018-12-07T05:53:02.089Z,951.12
2018-12-07T05:54:02.078Z,951.12
2018-12-07T05:55:02.069Z,951.2
2018-12-07T05:56:02.060Z,951.19
2018-12-07T05:57:02.042Z,951.18
2018-12-07T05:58:02.033Z,951.16
2018-12-07T05:59:02.020Z,951.11
2018-12-07T06:00:02.008Z,951.13
2018-12-07T06:01:01.996Z,951.1
2018-12-07T06:02:01.984Z,951.13
2018-12-07T06:03:01.994Z,951.14
2018-12-07T06:04:01.962Z,951.14
2018-12-07T06:05:01.950Z,951.16
2018-12-07T06:06:01.937Z,951.14
2018-12-07T06:07:01.926Z,951.14
2018-12-07T06:08:01.913Z,951.17
2018-12-07T06:09:01.902Z,951.15
2018-12-07T06:10:01.890Z,951.11
2018-12-07T06:11:01.881Z,951.11
2018-12-07T06:12:01.867Z,951.09
2018-12-07T06:13:01.858Z,951.09
2018-12-07T06:14:01.844Z,951.07
2018-12-07T06:15:01.833Z,951.12
2018-12-07T06:16:01.820Z,951.12
2018-12-07T06:17:01.809Z,951.06
2018-12-07T06:18:01.809Z,951.12
2018-12-07T06:19:01.785Z,951.08
2018-12-07T06:20:01.778Z,951.13
2018-12-07T06:21:01.762Z,951.06
2018-12-07T06:22:01.751Z,951.08
2018-12-07T06:23:01.739Z,951.03
2018-12-07T06:24:01.729Z,951.1
2018-12-07T06:25:01.730Z,951.15
2018-12-07T06:26:01.705Z,951.12
2018-12-07T06:27:01.695Z,951.11
2018-12-07T06:28:01.681Z,951.16
2018-12-07T06:29:01.671Z,951.1
2018-12-07T06:30:01.661Z,951.11
2018-12-07T06:31:01.652Z,951.07
2018-12-07T06:32:01.634Z,951.07
2018-12-07T06:33:01.625Z,951.05
2018-12-07T06:34:01.612Z,951.05
2018-12-07T06:35:01.601Z,951.1
2018-12-07T06:36:01.589Z,951.08
2018-12-07T06:37:01.576Z,951.09
2018-12-07T06:38:01.565Z,951.08
2018-12-07T06:39:01.554Z,951.15
2018-12-07T06:40:01.546Z,951.13
2018-12-07T06:41:01.531Z,951.12
2018-12-07T06:42:01.518Z,951.13
2018-12-07T06:43:01.508Z,951.06
2018-12-07T06:44:01.500Z,951.05
2018-12-07T06:45:01.484Z,951.1
2018-12-07T06:46:01.472Z,951.1
2018-12-07T06:47:01.460Z,951.05
2018-12-07T06:48:01.448Z,951.02
2018-12-07T06:49:01.437Z,951.04
2018-12-07T06:50:01.425Z,951.02
2018-12-07T06:51:01.415Z,951.02
2018-12-07T06:52:01.402Z,951.01
2018-12-07T06:53:01.390Z,950.92
2018-12-07T06:54:01.378Z,950.98
2018-12-07T06:55:01.367Z,950.99
2018-12-07T06:56:01.380Z,950.92
2018-12-07T06:57:01.343Z,950.87
2018-12-07T06:58:01.335Z,950.88
2018-12-07T06:59:01.320Z,950.93
2018-12-07T07:00:01.308Z,950.85
2018-12-07T07:01:01.296Z,950.87
2018-12-07T07:02:01.285Z,950.83
2018-12-07T07:03:01.273Z,950.84
2018-12-07T07:04:01.263Z,950.84
2018-12-07T07:05:01.260Z,950.75
2018-12-07T07:06:01.240Z,950.76
2018-12-07T07:07:01.226Z,950.74
2018-12-07T07:08:01.215Z,950.75
2018-12-07T07:09:01.204Z,950.69
2018-12-07T07:10:01.191Z,950.73
2018-12-07T07:11:01.179Z,950.73
2018-12-07T07:12:01.167Z,950.68
2018-12-07T07:13:01.156Z,950.71
2018-12-07T07:14:01.144Z,950.69
2018-12-07T07:15:01.132Z,950.67
2018-12-07T07:16:01.121Z,950.76
2018-12-07T07:17:01.108Z,950.7
2018-12-07T07:18:01.101Z,950.7
2018-12-07T07:19:01.085Z,950.68
2018-12-07T07:20:01.074Z,950.69
2018-12-07T07:21:01.062Z,950.67
2018-12-07T07:22:01.052Z,950.67
2018-12-07T07:23:01.042Z,950.59
2018-12-07T07:24:01.029Z,950.67
2018-12-07T07:25:01.014Z,950.65
2018-12-07T07:26:01.004Z,950.66
2018-12-07T07:27:00.992Z,950.62
2018-12-07T07:28:00.980Z,950.63
2018-12-07T07:29:00.968Z,950.65
2018-12-07T07:30:00.957Z,950.64
2018-12-07T07:31:00.946Z,950.58
2018-12-07T07:32:00.934Z,950.59
2018-12-07T07:33:00.922Z,950.64
2018-12-07T07:34:00.912Z,950.53
2018-12-07T07:35:00.900Z,950.58
2018-12-07T07:36:00.888Z,950.55
2018-12-07T07:37:00.876Z,950.56
2018-12-07T07:38:00.864Z,950.58
2018-12-07T07:39:00.857Z,950.54
2018-12-07T07:40:00.840Z,950.53
2018-12-07T07:41:00.829Z,950.57
2018-12-07T07:42:00.817Z,950.59
2018-12-07T07:43:00.807Z,950.58
2018-12-07T07:44:00.795Z,950.53
2018-12-07T07:45:00.785Z,950.58
2018-12-07T07:46:00.772Z,950.57
2018-12-07T07:47:00.763Z,950.53
2018-12-07T07:48:00.749Z,950.55
2018-12-07T07:49:00.738Z,950.54
2018-12-07T07:50:00.727Z,950.55
2018-12-07T07:51:00.714Z,950.53
2018-12-07T07:52:00.702Z,950.52
2018-12-07T07:53:00.692Z,950.5
2018-12-07T07:54:00.680Z,950.52
2018-12-07T07:55:00.669Z,950.55
2018-12-07T07:56:00.656Z,950.53
2018-12-07T07:57:00.650Z,950.52
2018-12-07T07:58:00.633Z,950.47
2018-12-07T07:59:00.623Z,950.55
2018-12-07T08:00:00.613Z,950.46
2018-12-07T08:01:00.600Z,950.41
2018-12-07T08:02:00.590Z,950.44
2018-12-07T08:03:00.582Z,950.44
2018-12-07T08:04:00.568Z,950.42
2018-12-07T08:05:00.555Z,950.44
2018-12-07T08:06:00.543Z,950.43
2018-12-07T08:07:00.533Z,950.48
2018-12-07T08:08:00.521Z,950.38
2018-12-07T08:09:00.510Z,950.4
2018-12-07T08:10:00.498Z,950.33
2018-12-07T08:11:00.487Z,950.39
2018-12-07T08:12:00.475Z,950.34
2018-12-07T08:13:00.465Z,950.41
2018-12-07T08:14:00.453Z,950.3
2018-12-07T08:15:00.442Z,950.34
2018-12-07T08:16:00.431Z,950.3
2018-12-07T08:17:00.418Z,950.34
2018-12-07T08:18:00.409Z,950.27
2018-12-07T08:19:00.399Z,950.29
2018-12-07T08:20:00.388Z,950.31
2018-12-07T08:21:00.374Z,950.22
2018-12-07T08:22:00.363Z,950.24
2018-12-07T08:23:00.350Z,950.17
2018-12-07T08:24:00.339Z,950.29
2018-12-07T08:25:00.328Z,950.2
2018-12-07T08:26:00.317Z,950.2
2018-12-07T08:27:00.306Z,950.23
2018-12-07T08:28:00.295Z,950.22
2018-12-07T08:29:00.284Z,950.24
2018-12-07T08:30:00.275Z,950.21
2018-12-07T08:31:00.261Z,950.21
2018-12-07T08:32:00.250Z,950.22
2018-12-07T08:33:00.239Z,950.22
2018-12-07T08:34:00.385Z,950.11
2018-12-07T08:35:00.216Z,950.19
2018-12-07T08:36:00.204Z,950.17
2018-12-07T08:37:00.195Z,950.15
2018-12-07T08:38:00.182Z,950.13
2018-12-07T08:39:00.171Z,950.17
2018-12-07T08:40:00.161Z,950.11
2018-12-07T08:41:00.150Z,950.15
2018-12-07T08:42:06.476Z,950.12
2018-12-07T08:43:00.126Z,950.11
2018-12-07T08:44:00.116Z,950.12
2018-12-07T08:45:00.104Z,950.13
2018-12-07T08:46:00.096Z,950.19
2018-12-07T08:47:00.082Z,950.14
2018-12-07T08:48:00.072Z,950.19
2018-12-07T08:49:00.061Z,950.16
2018-12-07T08:50:00.049Z,950.1
2018-12-07T08:51:00.039Z,950.14
2018-12-07T08:52:00.028Z,950.12
2018-12-07T08:53:00.017Z,950.1
2018-12-07T08:54:00.005Z,950.13
2018-12-07T08:55:00.000Z,950.03
2018-12-07T08:56:00.009Z,950.02
2018-12-07T08:56:59.969Z,950.01
2018-12-07T08:57:59.959Z,950.04
2018-12-07T08:58:59.948Z,949.97
2018-12-07T08:59:59.935Z,949.95
2018-12-07T09:00:59.924Z,949.89
2018-12-07T09:01:59.915Z,949.9
2018-12-07T09:02:59.905Z,949.93
2018-12-07T09:03:59.891Z,949.93
2018-12-07T09:04:59.881Z,949.92
2018-12-07T09:05:59.871Z,949.84
2018-12-07T09:06:59.859Z,949.85
2018-12-07T09:07:59.849Z,949.83
2018-12-07T09:08:59.837Z,949.76
2018-12-07T09:09:59.825Z,949.78
2018-12-07T09:10:59.813Z,949.75
2018-12-07T09:11:59.803Z,949.77
2018-12-07T09:12:59.793Z,949.82
2018-12-07T09:13:59.781Z,949.8
2018-12-07T09:14:59.777Z,949.75
2018-12-07T09:15:59.757Z,949.75
2018-12-07T09:16:59.748Z,949.77
2018-12-07T09:17:59.736Z,949.8
2018-12-07T09:18:59.724Z,949.73
2018-12-07T09:19:59.713Z,949.73
2018-12-07T09:20:59.703Z,949.67
2018-12-07T09:21:59.691Z,949.7
2018-12-07T09:22:59.680Z,949.7
2018-12-07T09:23:59.671Z,949.67
2018-12-07T09:24:59.659Z,949.68
2018-12-07T09:25:59.646Z,949.57
2018-12-07T09:26:59.636Z,949.58
2018-12-07T09:27:59.625Z,949.59
2018-12-07T09:28:59.613Z,949.61
2018-12-07T09:29:59.602Z,949.58
2018-12-07T09:30:59.592Z,949.46
2018-12-07T09:31:59.580Z,949.45
2018-12-07T09:32:59.568Z,949.5
2018-12-07T09:33:59.559Z,949.48
2018-12-07T09:34:59.548Z,949.5
2018-12-07T09:35:59.537Z,949.47
2018-12-07T09:36:59.526Z,949.5
2018-12-07T09:37:59.514Z,949.43
2018-12-07T09:38:59.504Z,949.38
2018-12-07T09:39:59.493Z,949.42
2018-12-07T09:40:59.482Z,949.34
2018-12-07T09:41:59.470Z,949.37
2018-12-07T09:42:59.458Z,949.33
2018-12-07T09:43:59.447Z,949.3
2018-12-07T09:44:59.437Z,949.32
2018-12-07T09:45:59.427Z,949.26
2018-12-07T09:46:59.415Z,949.32
2018-12-07T09:47:59.404Z,949.25
2018-12-07T09:48:59.393Z,949.25
2018-12-07T09:49:59.383Z,949.23
2018-12-07T09:50:59.370Z,949.24
2018-12-07T09:51:59.358Z,949.16
2018-12-07T09:52:59.349Z,949.13
2018-12-07T09:53:59.338Z,949.16
2018-12-07T09:54:59.327Z,949.09
2018-12-07T09:55:59.316Z,949.11
2018-12-07T09:56:59.309Z,949.14
2018-12-07T09:57:59.296Z,949.06
2018-12-07T09:58:59.283Z,949.08
2018-12-07T09:59:59.271Z,949
2018-12-07T10:00:59.261Z,949.02
2018-12-07T10:01:59.250Z,949.1
2018-12-07T10:02:59.238Z,949.03
2018-12-07T10:03:59.227Z,948.98
2018-12-07T10:04:59.218Z,949.07
2018-12-07T10:05:59.206Z,948.97
2018-12-07T10:06:59.194Z,948.99
2018-12-07T10:07:59.184Z,948.97
2018-12-07T10:08:59.173Z,948.92
2018-12-07T10:09:59.162Z,948.94
2018-12-07T10:10:59.151Z,948.91
2018-12-07T10:11:59.141Z,948.93
2018-12-07T10:12:59.130Z,948.91
2018-12-07T10:13:59.118Z,948.88
2018-12-07T10:14:59.107Z,948.88
2018-12-07T10:15:59.096Z,948.89
2018-12-07T10:16:59.085Z,948.86
2018-12-07T10:17:59.075Z,948.86
2018-12-07T10:18:59.065Z,948.85
2018-12-07T10:19:59.052Z,948.83
2018-12-07T10:20:59.047Z,948.81
2018-12-07T10:21:59.032Z,948.79
2018-12-07T10:22:59.021Z,948.79
2018-12-07T10:23:59.007Z,948.77
2018-12-07T10:24:58.997Z,948.71
2018-12-07T10:25:58.986Z,948.73
2018-12-07T10:26:58.976Z,948.79
2018-12-07T10:27:58.965Z,948.74
2018-12-07T10:28:58.955Z,948.75
2018-12-07T10:29:58.944Z,948.76
2018-12-07T10:30:58.939Z,948.69
2018-12-07T10:31:58.921Z,948.68
2018-12-07T10:32:58.911Z,948.67
2018-12-07T10:33:58.901Z,948.6
2018-12-07T10:34:58.888Z,948.59
2018-12-07T10:35:58.877Z,948.64
2018-12-07T10:36:58.867Z,948.61
2018-12-07T10:37:58.856Z,948.52
2018-12-07T10:38:58.845Z,948.46
2018-12-07T10:39:58.834Z,948.42
2018-12-07T10:40:58.824Z,948.41
2018-12-07T10:41:59.900Z,948.34
2018-12-07T10:42:58.804Z,948.34
2018-12-07T10:43:58.789Z,948.39
2018-12-07T10:44:58.779Z,948.35
2018-12-07T10:45:58.768Z,948.32
2018-12-07T10:46:58.756Z,948.28
2018-12-07T10:47:58.746Z,948.27
2018-12-07T10:48:58.733Z,948.19
2018-12-07T10:49:58.722Z,948.27
2018-12-07T10:50:58.717Z,948.22
2018-12-07T10:51:58.703Z,948.22
2018-12-07T10:52:58.689Z,948.13
2018-12-07T10:53:58.678Z,948.26
2018-12-07T10:54:58.667Z,948.18
2018-12-07T10:55:58.656Z,948.14
2018-12-07T10:56:58.644Z,948.08
2018-12-07T10:57:58.634Z,948.11
2018-12-07T10:58:58.623Z,948.06
2018-12-07T10:59:58.613Z,948.03
2018-12-07T11:00:58.601Z,948.09
2018-12-07T11:01:58.590Z,948.01
2018-12-07T11:02:58.578Z,947.96
2018-12-07T11:03:58.567Z,947.97
2018-12-07T11:04:58.557Z,947.88
2018-12-07T11:05:58.546Z,947.88
2018-12-07T11:06:58.535Z,947.87
2018-12-07T11:07:58.523Z,947.81
2018-12-07T11:08:58.511Z,947.79
2018-12-07T11:09:58.501Z,947.84
2018-12-07T11:10:58.489Z,947.83
2018-12-07T11:11:58.479Z,947.72
2018-12-07T11:12:58.470Z,947.82
2018-12-07T11:13:58.456Z,947.89
2018-12-07T11:14:58.446Z,947.81
2018-12-07T11:15:58.435Z,947.76
2018-12-07T11:16:58.424Z,947.84
2018-12-07T11:17:58.413Z,947.71
2018-12-07T11:18:58.401Z,947.75
2018-12-07T11:19:58.392Z,947.75
2018-12-07T11:20:58.379Z,947.73
2018-12-07T11:21:58.376Z,947.69
2018-12-07T11:22:58.358Z,947.66
2018-12-07T11:23:58.347Z,947.68
2018-12-07T11:24:58.334Z,947.58
2018-12-07T11:25:58.322Z,947.69
2018-12-07T11:26:58.315Z,947.58
2018-12-07T11:27:58.301Z,947.53
2018-12-07T11:28:58.290Z,947.51
2018-12-07T11:29:58.279Z,947.51
2018-12-07T11:30:58.268Z,947.59
2018-12-07T11:31:58.258Z,947.56
2018-12-07T11:32:58.246Z,947.55
2018-12-07T11:33:58.235Z,947.52
2018-12-07T11:34:58.223Z,947.52
2018-12-07T11:35:58.218Z,947.5
2018-12-07T11:36:58.200Z,947.52
2018-12-07T11:37:58.190Z,947.52
2018-12-07T11:38:58.178Z,947.48
2018-12-07T11:39:58.168Z,947.46
2018-12-07T11:40:58.156Z,947.47
2018-12-07T11:41:58.146Z,947.4
2018-12-07T11:42:58.134Z,947.4
2018-12-07T11:43:58.122Z,947.44
2018-12-07T11:44:58.111Z,947.38
2018-12-07T11:45:58.100Z,947.35
2018-12-07T11:46:58.089Z,947.3
2018-12-07T11:47:58.078Z,947.32
2018-12-07T11:48:58.066Z,947.41
2018-12-07T11:49:58.054Z,947.41
2018-12-07T11:50:58.045Z,947.38
2018-12-07T11:51:58.032Z,947.35
2018-12-07T11:52:58.021Z,947.27
2018-12-07T11:53:58.009Z,947.25
2018-12-07T11:54:57.997Z,947.26
2018-12-07T11:55:57.988Z,947.31
2018-12-07T11:56:57.977Z,947.32
2018-12-07T11:57:58.040Z,947.3
2018-12-07T11:58:57.952Z,947.27
2018-12-07T11:59:57.942Z,947.23
2018-12-07T12:00:57.932Z,947.19
2018-12-07T12:01:57.919Z,947.25
2018-12-07T12:02:57.945Z,947.22
2018-12-07T12:03:57.896Z,947.26
2018-12-07T12:04:57.884Z,947.26
2018-12-07T12:05:57.873Z,947.23
2018-12-07T12:06:57.861Z,947.3
2018-12-07T12:07:57.863Z,947.18
2018-12-07T12:08:57.839Z,947.17
2018-12-07T12:09:57.826Z,947.1
2018-12-07T12:10:57.815Z,947.11
2018-12-07T12:11:57.805Z,947.11
2018-12-07T12:12:57.794Z,947.11
2018-12-07T12:13:57.781Z,947.1
2018-12-07T12:14:57.771Z,947.14
2018-12-07T12:15:57.758Z,947.01
2018-12-07T12:16:57.746Z,947.09
2018-12-07T12:17:57.737Z,947.07
2018-12-07T12:18:57.724Z,947.08
2018-12-07T12:19:57.712Z,947.02
2018-12-07T12:20:57.701Z,947.07
2018-12-07T12:21:57.690Z,947
2018-12-07T12:22:57.678Z,946.98
2018-12-07T12:23:57.670Z,946.9
2018-12-07T12:24:57.656Z,946.94
2018-12-07T12:25:57.644Z,946.95
2018-12-07T12:26:57.632Z,946.87
2018-12-07T12:27:57.620Z,946.97
2018-12-07T12:28:57.608Z,946.86
2018-12-07T12:29:57.598Z,946.89
2018-12-07T12:30:57.587Z,946.85